Time;durP1;ratioP1;P1;durP2;ratioP2;P2;SDS_P1;SDS_P2;PMS_P1;PMS_P2;Temp;Humidity;BMP_temperature;BMP_pressure;BME280_temperature;BME280_humidity;BME280_pressure;Samples;Min_cycle;Max_cycle;Signal;HPM_P1;HPM_P2
2021/05/05 00:00:27;;;;;;;;;;;15.60;99.90;;;;;;5013004;28;20375;-72
2021/05/05 00:02:54;;;;;;;;;;;15.50;99.90;;;;;;5012866;28;20342;-70
2021/05/05 00:05:21;;;;;;;;;;;15.60;99.90;;;;;;5012646;28;19936;-71
2021/05/05 00:07:47;;;;;;;;;;;15.60;99.90;;;;;;5012920;28;19916;-72
2021/05/05 00:10:15;;;;;;;;;;;15.60;99.90;;;;;;5012952;28;20311;-69
2021/05/05 00:12:42;;;;;;;;;;;15.70;99.90;;;;;;5013125;28;19952;-69
2021/05/05 00:15:11;;;;;;;;;;;15.70;99.90;;;;;;5012944;28;20367;-70
2021/05/05 00:17:37;;;;;;;;;;;15.70;99.90;;;;;;5012895;28;20438;-69
2021/05/05 00:20:06;;;;;;;;;;;15.80;99.90;;;;;;5012876;28;19918;-71
2021/05/05 00:22:33;;;;;;;;;;;15.80;99.90;;;;;;5016106;28;19948;-69
2021/05/05 00:25:00;;;;;;;;;;;15.80;99.90;;;;;;5016367;28;20272;-69
2021/05/05 00:27:27;;;;;;;;;;;15.80;99.90;;;;;;5016661;28;20007;-69
2021/05/05 00:29:53;;;;;;;;;;;15.90;99.90;;;;;;5016566;28;19915;-69
2021/05/05 00:32:20;;;;;;;;;;;15.90;99.90;;;;;;5016363;28;19948;-69
2021/05/05 00:34:47;;;;;;;;;;;16.00;99.90;;;;;;5016243;28;20339;-69
2021/05/05 00:37:14;;;;;;;;;;;16.10;99.90;;;;;;5016000;28;19997;-67
2021/05/05 00:39:40;;;;;;;;;;;16.10;99.90;;;;;;5016329;28;19924;-68
2021/05/05 00:42:07;;;;;;;;;;;16.10;99.90;;;;;;5015886;28;19922;-68
2021/05/05 00:44:34;;;;;;;;;;;16.10;99.90;;;;;;5016161;28;19953;-68
2021/05/05 00:47:01;;;;;;;;;;;16.10;99.90;;;;;;5015748;28;20004;-68
2021/05/05 00:49:28;;;;;;;;;;;16.20;99.90;;;;;;5016007;28;20313;-68
2021/05/05 00:51:55;;;;;;;;;;;16.30;99.90;;;;;;5015631;28;19932;-68
2021/05/05 00:54:21;;;;;;;;;;;16.30;99.90;;;;;;5015878;28;19985;-68
2021/05/05 00:56:48;;;;;;;;;;;16.30;99.90;;;;;;5015456;28;19910;-68
2021/05/05 00:59:15;;;;;;;;;;;16.30;99.90;;;;;;5015700;28;20379;-68
2021/05/05 01:01:42;;;;;;;;;;;16.30;99.90;;;;;;5015652;28;20403;-67
2021/05/05 01:04:09;;;;;;;;;;;16.40;99.90;;;;;;5015583;28;20361;-70
2021/05/05 01:06:37;;;;;;;;;;;16.40;99.90;;;;;;5015708;28;19916;-69
2021/05/05 01:09:04;;;;;;;;;;;16.40;99.90;;;;;;5016521;28;19913;-68
2021/05/05 01:11:31;;;;;;;;;;;16.40;99.90;;;;;;5015774;28;19909;-68
2021/05/05 01:13:58;;;;;;;;;;;16.40;99.90;;;;;;5015687;28;19910;-68
2021/05/05 01:16:24;;;;;;;;;;;16.40;99.90;;;;;;5015593;28;19909;-68
2021/05/05 01:18:51;;;;;;;;;;;16.50;99.90;;;;;;5014953;28;19945;-67
2021/05/05 01:21:19;;;;;;;;;;;16.50;99.90;;;;;;5015226;28;19944;-68
2021/05/05 01:23:49;;;;;;;;;;;16.40;99.90;;;;;;5015199;28;20419;-67
2021/05/05 01:26:15;;;;;;;;;;;16.50;99.90;;;;;;5015218;28;19909;-67
2021/05/05 01:28:44;;;;;;;;;;;16.50;99.90;;;;;;5015408;28;19913;-67
2021/05/05 01:31:14;;;;;;;;;;;16.50;99.90;;;;;;5014021;28;19936;-68
2021/05/05 01:33:41;;;;;;;;;;;16.60;99.90;;;;;;5015190;28;19949;-68
2021/05/05 01:36:09;;;;;;;;;;;16.60;99.90;;;;;;5014921;28;20004;-68
2021/05/05 01:38:36;;;;;;;;;;;16.70;99.90;;;;;;5015162;28;19914;-67
2021/05/05 01:41:03;;;;;;;;;;;16.70;99.90;;;;;;5014636;28;19925;-68
2021/05/05 01:43:30;;;;;;;;;;;16.60;99.90;;;;;;5015029;28;19917;-67
2021/05/05 01:45:57;;;;;;;;;;;16.60;99.90;;;;;;5014779;28;19917;-67
2021/05/05 01:48:25;;;;;;;;;;;16.50;99.90;;;;;;5015015;28;19910;-67
2021/05/05 01:50:52;;;;;;;;;;;16.40;99.90;;;;;;5014445;28;19914;-67
2021/05/05 01:53:18;;;;;;;;;;;16.20;99.90;;;;;;5014982;28;19980;-68
2021/05/05 01:55:45;;;;;;;;;;;16.20;99.90;;;;;;5014872;28;19948;-68
2021/05/05 01:58:13;;;;;;;;;;;16.20;99.90;;;;;;5014909;28;19920;-68
2021/05/05 02:00:41;;;;;;;;;;;16.20;99.90;;;;;;5014655;28;19917;-68
2021/05/05 02:03:08;;;;;;;;;;;16.20;99.90;;;;;;5014775;28;19948;-68
2021/05/05 02:05:35;;;;;;;;;;;16.30;99.90;;;;;;5014561;28;19910;-68
2021/05/05 02:08:03;;;;;;;;;;;16.40;99.90;;;;;;5014630;28;20327;-69
2021/05/05 02:10:30;;;;;;;;;;;16.50;99.90;;;;;;5014702;28;19916;-67
2021/05/05 02:12:56;;;;;;;;;;;16.50;99.90;;;;;;5014200;28;20347;-67
2021/05/05 02:15:23;;;;;;;;;;;16.60;99.90;;;;;;5014149;28;19909;-68
2021/05/05 02:17:50;;;;;;;;;;;16.60;99.90;;;;;;5014411;28;19918;-68
2021/05/05 02:20:20;;;;;;;;;;;16.60;99.90;;;;;;5014204;28;20044;-69
2021/05/05 02:22:47;;;;;;;;;;;16.60;99.90;;;;;;5014086;28;19925;-68
2021/05/05 02:25:14;;;;;;;;;;;16.70;99.90;;;;;;5014201;28;19909;-67
2021/05/05 02:27:42;;;;;;;;;;;16.70;99.90;;;;;;5014227;28;20443;-68
2021/05/05 02:30:10;;;;;;;;;;;16.70;99.90;;;;;;5014159;28;19916;-68
2021/05/05 02:32:37;;;;;;;;;;;16.70;99.90;;;;;;5014199;28;19909;-69
2021/05/05 02:35:04;;;;;;;;;;;16.80;99.90;;;;;;5013938;28;19976;-68
2021/05/05 02:37:31;;;;;;;;;;;16.80;99.90;;;;;;5014343;28;20008;-68
2021/05/05 02:39:58;;;;;;;;;;;16.80;99.90;;;;;;5014498;28;20055;-68
2021/05/05 02:42:25;;;;;;;;;;;16.80;99.90;;;;;;5013659;28;19929;-67
2021/05/05 02:44:52;;;;;;;;;;;16.90;99.90;;;;;;5013890;28;19953;-68
2021/05/05 02:47:21;;;;;;;;;;;16.90;99.90;;;;;;5013713;28;19909;-68
2021/05/05 02:49:48;;;;;;;;;;;17.00;99.90;;;;;;5013798;28;20331;-69
2021/05/05 02:52:15;;;;;;;;;;;17.00;99.90;;;;;;5013882;28;20000;-69
2021/05/05 02:54:42;;;;;;;;;;;17.10;99.90;;;;;;5013683;28;19914;-69
2021/05/05 02:57:08;;;;;;;;;;;17.00;99.90;;;;;;5013770;28;19909;-69
2021/05/05 02:59:35;;;;;;;;;;;17.10;99.90;;;;;;5013745;28;20422;-69
2021/05/05 03:02:02;;;;;;;;;;;17.10;99.90;;;;;;5013559;28;19952;-67
2021/05/05 03:04:29;;;;;;;;;;;17.20;99.90;;;;;;5013747;28;19979;-69
2021/05/05 03:06:56;;;;;;;;;;;17.20;99.90;;;;;;5013278;28;20301;-69
2021/05/05 03:09:26;;;;;;;;;;;17.20;99.90;;;;;;4996201;28;19920;-72
2021/05/05 03:11:57;;;;;;;;;;;17.20;99.90;;;;;;5013655;28;19909;-70
2021/05/05 03:14:24;;;;;;;;;;;17.20;99.90;;;;;;5013428;28;19956;-67
2021/05/05 03:16:54;;;;;;;;;;;17.20;99.90;;;;;;5013380;28;19909;-69
2021/05/05 03:19:21;;;;;;;;;;;17.20;99.90;;;;;;5013180;28;19920;-69
2021/05/05 03:21:47;;;;;;;;;;;17.20;99.90;;;;;;5013108;28;19914;-68
2021/05/05 03:24:14;;;;;;;;;;;17.00;99.90;;;;;;5013377;28;19936;-68
2021/05/05 03:26:41;;;;;;;;;;;16.90;99.90;;;;;;5013336;28;19914;-68
2021/05/05 03:29:08;;;;;;;;;;;16.90;99.90;;;;;;5013275;28;19914;-69
2021/05/05 03:31:35;;;;;;;;;;;17.10;99.90;;;;;;5013375;28;19909;-68
2021/05/05 03:34:02;;;;;;;;;;;17.20;99.90;;;;;;5013255;28;19913;-68
2021/05/05 03:36:29;;;;;;;;;;;17.20;99.90;;;;;;5013034;28;19910;-68
2021/05/05 03:38:55;;;;;;;;;;;17.20;99.90;;;;;;5013120;28;20364;-68
2021/05/05 03:41:22;;;;;;;;;;;17.20;99.90;;;;;;5012908;28;19926;-68
2021/05/05 03:43:49;;;;;;;;;;;17.20;99.90;;;;;;5013250;28;20012;-68
2021/05/05 03:46:15;;;;;;;;;;;17.20;99.90;;;;;;5013252;28;19910;-68
2021/05/05 03:48:42;;;;;;;;;;;17.20;99.90;;;;;;5013104;28;20269;-67
2021/05/05 03:51:09;;;;;;;;;;;17.10;99.90;;;;;;5012316;28;19949;-68
2021/05/05 03:53:35;;;;;;;;;;;17.10;99.90;;;;;;5013188;28;19999;-68
2021/05/05 03:56:02;;;;;;;;;;;17.10;99.90;;;;;;5016069;28;19914;-68
2021/05/05 03:58:29;;;;;;;;;;;17.10;99.90;;;;;;5016995;28;19913;-68
2021/05/05 04:00:56;;;;;;;;;;;17.00;99.90;;;;;;5016553;28;19984;-68
2021/05/05 04:03:22;;;;;;;;;;;16.80;99.90;;;;;;5016898;28;19944;-68
2021/05/05 04:05:49;;;;;;;;;;;16.80;99.90;;;;;;5016627;28;19914;-68
2021/05/05 04:08:16;;;;;;;;;;;16.90;99.90;;;;;;5017033;28;19971;-70
2021/05/05 04:10:42;;;;;;;;;;;17.00;99.90;;;;;;5018169;28;19913;-69
2021/05/05 04:13:09;;;;;;;;;;;17.10;99.90;;;;;;5018853;28;20391;-69
2021/05/05 04:15:38;;;;;;;;;;;17.10;99.90;;;;;;5016825;28;19909;-68
2021/05/05 04:18:05;;;;;;;;;;;17.20;99.90;;;;;;5016615;28;19953;-68
2021/05/05 04:20:32;;;;;;;;;;;17.20;99.90;;;;;;5016328;28;19967;-68
2021/05/05 04:22:59;;;;;;;;;;;17.20;99.90;;;;;;5016142;28;20323;-69
2021/05/05 04:25:26;;;;;;;;;;;17.30;99.90;;;;;;4998906;28;19963;-68
2021/05/05 04:27:53;;;;;;;;;;;17.20;99.90;;;;;;5016378;28;19910;-68
2021/05/05 04:30:19;;;;;;;;;;;17.30;99.90;;;;;;5016177;28;19932;-67
2021/05/05 04:32:47;;;;;;;;;;;17.20;99.90;;;;;;5016111;28;19941;-69
2021/05/05 04:35:14;;;;;;;;;;;17.20;99.90;;;;;;5016211;28;19924;-69
2021/05/05 04:37:41;;;;;;;;;;;17.30;99.90;;;;;;5016221;28;19949;-68
2021/05/05 04:40:08;;;;;;;;;;;17.40;99.90;;;;;;5016212;28;19918;-68
2021/05/05 04:42:35;;;;;;;;;;;17.30;99.90;;;;;;5016243;28;19949;-69
2021/05/05 04:45:04;;;;;;;;;;;17.20;99.90;;;;;;5015930;28;19975;-66
2021/05/05 04:47:31;;;;;;;;;;;17.20;99.90;;;;;;5016160;28;20335;-68
2021/05/05 04:50:01;;;;;;;;;;;17.30;99.90;;;;;;5016117;28;20360;-69
2021/05/05 04:52:28;;;;;;;;;;;17.30;99.90;;;;;;5015888;28;19909;-69
2021/05/05 04:54:54;;;;;;;;;;;17.40;99.90;;;;;;5015788;28;19909;-68
2021/05/05 04:57:21;;;;;;;;;;;17.40;99.90;;;;;;5016045;28;19949;-68
2021/05/05 04:59:48;;;;;;;;;;;17.50;99.90;;;;;;5015736;28;19922;-68
2021/05/05 05:02:15;;;;;;;;;;;17.30;99.90;;;;;;5015839;28;19910;-68
2021/05/05 05:04:43;;;;;;;;;;;17.30;99.90;;;;;;5015514;28;20053;-68
2021/05/05 05:07:09;;;;;;;;;;;17.20;99.90;;;;;;5015719;28;20036;-69
2021/05/05 05:09:36;;;;;;;;;;;17.20;99.90;;;;;;5015843;28;19999;-69
2021/05/05 05:12:02;;;;;;;;;;;17.20;99.90;;;;;;5015384;28;19909;-70
2021/05/05 05:14:29;;;;;;;;;;;17.20;99.90;;;;;;5015692;28;19956;-69
2021/05/05 05:16:57;;;;;;;;;;;17.00;99.90;;;;;;5015325;28;19916;-69
2021/05/05 05:19:24;;;;;;;;;;;17.10;99.90;;;;;;5015413;28;20284;-71
2021/05/05 05:21:50;;;;;;;;;;;16.90;99.90;;;;;;5015312;28;19909;-69
2021/05/05 05:24:17;;;;;;;;;;;16.90;99.90;;;;;;5015359;28;19909;-68
2021/05/05 05:26:44;;;;;;;;;;;16.90;99.90;;;;;;5014991;28;20039;-70
2021/05/05 05:29:11;;;;;;;;;;;17.00;99.90;;;;;;5015303;28;19914;-69
2021/05/05 05:31:38;;;;;;;;;;;17.00;99.90;;;;;;5014997;28;19916;-69
2021/05/05 05:34:07;;;;;;;;;;;17.00;99.90;;;;;;5015174;28;20263;-69
2021/05/05 05:36:34;;;;;;;;;;;17.00;99.90;;;;;;5015123;28;20003;-69
2021/05/05 05:39:01;;;;;;;;;;;16.90;99.90;;;;;;5015249;28;19909;-68
2021/05/05 05:41:32;;;;;;;;;;;17.00;99.90;;;;;;5017814;28;19925;-68
2021/05/05 05:43:59;;;;;;;;;;;17.00;99.90;;;;;;5017251;28;19913;-69
2021/05/05 05:46:27;;;;;;;;;;;17.00;99.90;;;;;;4996823;28;19914;-69
2021/05/05 05:48:53;;;;;;;;;;;17.00;99.90;;;;;;5013715;28;19916;-69
2021/05/05 05:51:25;;;;;;;;;;;17.00;99.90;;;;;;5012763;28;20379;-69
2021/05/05 05:53:51;;;;;;;;;;;17.00;99.90;;;;;;5013722;28;20361;-70
2021/05/05 05:56:18;;;;;;;;;;;17.00;99.90;;;;;;5013831;28;19910;-70
2021/05/05 05:58:45;;;;;;;;;;;17.00;99.90;;;;;;5013905;28;19917;-69
2021/05/05 06:01:14;;;;;;;;;;;17.00;99.90;;;;;;5013596;28;19917;-69
2021/05/05 06:03:41;;;;;;;;;;;17.00;99.90;;;;;;5013903;28;19932;-69
2021/05/05 06:06:08;;;;;;;;;;;17.00;99.90;;;;;;5013911;28;20375;-69
2021/05/05 06:08:36;;;;;;;;;;;17.00;99.90;;;;;;5013445;28;19993;-69
2021/05/05 06:11:03;;;;;;;;;;;17.00;99.90;;;;;;5013474;28;19917;-68
2021/05/05 06:13:30;;;;;;;;;;;17.00;99.90;;;;;;5013032;28;20325;-72
2021/05/05 06:15:57;;;;;;;;;;;17.00;99.90;;;;;;5013720;28;19986;-71
2021/05/05 06:18:24;;;;;;;;;;;17.00;99.90;;;;;;5013160;28;20364;-69
2021/05/05 06:20:50;;;;;;;;;;;17.00;99.90;;;;;;5013369;28;19918;-73
2021/05/05 06:23:17;;;;;;;;;;;17.00;99.90;;;;;;5013842;28;20415;-70
2021/05/05 06:25:44;;;;;;;;;;;17.00;99.90;;;;;;5013424;28;20297;-69
2021/05/05 06:28:10;;;;;;;;;;;16.90;99.90;;;;;;5013606;28;19925;-70
2021/05/05 06:30:37;;;;;;;;;;;16.90;99.90;;;;;;5013333;28;19917;-70
2021/05/05 06:33:04;;;;;;;;;;;16.90;99.90;;;;;;5013362;28;20276;-70
2021/05/05 06:35:31;;;;;;;;;;;17.00;99.90;;;;;;5013059;28;19955;-70
2021/05/05 06:37:57;;;;;;;;;;;17.00;99.90;;;;;;5013453;28;19917;-69
2021/05/05 06:40:24;;;;;;;;;;;17.10;99.90;;;;;;5013136;28;20008;-69
2021/05/05 06:42:51;;;;;;;;;;;17.00;99.90;;;;;;4907059;28;3057464;-69
2021/05/05 06:45:18;;;;;;;;;;;17.00;99.90;;;;;;5014267;28;20349;-70
2021/05/05 06:47:45;;;;;;;;;;;17.00;99.90;;;;;;5014209;28;20345;-70
2021/05/05 06:50:12;;;;;;;;;;;17.00;99.90;;;;;;4996154;28;19914;-69
2021/05/05 06:52:38;;;;;;;;;;;17.00;99.90;;;;;;5014010;28;19933;-70
2021/05/05 06:55:09;;;;;;;;;;;17.00;99.90;;;;;;5013730;28;19909;-69
2021/05/05 06:57:36;;;;;;;;;;;17.00;99.90;;;;;;5013989;28;20019;-69
2021/05/05 07:00:04;;;;;;;;;;;17.00;99.90;;;;;;4996016;28;19917;-70
2021/05/05 07:02:31;;;;;;;;;;;17.00;99.90;;;;;;5013766;28;19916;-70
2021/05/05 07:04:58;;;;;;;;;;;17.10;99.90;;;;;;5013633;28;19910;-69
2021/05/05 07:07:31;;;;;;;;;;;17.00;99.90;;;;;;5013669;28;19910;-69
2021/05/05 07:09:57;;;;;;;;;;;17.10;99.90;;;;;;5013888;28;19909;-70
2021/05/05 07:12:24;;;;;;;;;;;17.10;99.90;;;;;;5014495;28;19925;-70
2021/05/05 07:14:51;;;;;;;;;;;17.10;99.90;;;;;;5015078;28;19956;-70
2021/05/05 07:17:17;;;;;;;;;;;17.00;99.90;;;;;;5015394;28;19953;-69
2021/05/05 07:19:44;;;;;;;;;;;17.00;99.90;;;;;;5013401;28;19939;-69
2021/05/05 07:22:14;;;;;;;;;;;17.00;99.90;;;;;;5013332;28;19932;-70
2021/05/05 07:24:40;;;;;;;;;;;16.90;99.90;;;;;;5013644;28;20360;-71
2021/05/05 07:27:07;;;;;;;;;;;16.90;99.90;;;;;;5013268;28;19952;-70
2021/05/05 07:29:34;;;;;;;;;;;16.90;99.90;;;;;;5012450;28;19913;-71
2021/05/05 07:32:00;;;;;;;;;;;16.90;99.90;;;;;;5013397;28;19916;-70
2021/05/05 07:34:28;;;;;;;;;;;16.90;99.90;;;;;;5008254;28;19997;-70
2021/05/05 07:37:05;;;;;;;;;;;16.90;99.90;;;;;;4995654;28;19918;-69
2021/05/05 07:47:37;;;;;;;;;;;16.90;99.90;;;;;;5010967;28;19945;-68
2021/05/05 07:50:05;;;;;;;;;;;17.00;99.90;;;;;;5011181;28;19909;-69
2021/05/05 07:52:32;;;;;;;;;;;17.00;99.90;;;;;;5010946;28;19925;-68
2021/05/05 07:55:01;;;;;;;;;;;17.00;99.90;;;;;;5010941;28;20339;-70
2021/05/05 07:57:27;;;;;;;;;;;17.00;99.90;;;;;;5011249;28;19909;-68
2021/05/05 07:59:54;;;;;;;;;;;17.00;99.90;;;;;;5010872;28;20016;-72
2021/05/05 08:02:21;;;;;;;;;;;16.90;99.90;;;;;;5010407;28;20280;-71
2021/05/05 08:04:50;;;;;;;;;;;17.00;99.90;;;;;;5010678;28;19931;-70
2021/05/05 08:07:21;;;;;;;;;;;17.00;99.90;;;;;;4992947;28;20394;-69
2021/05/05 08:09:48;;;;;;;;;;;17.00;99.90;;;;;;5011259;28;19913;-69
2021/05/05 08:12:15;;;;;;;;;;;16.90;99.90;;;;;;5011070;28;19920;-72
2021/05/05 08:14:43;;;;;;;;;;;16.90;99.90;;;;;;5011006;28;19913;-70
2021/05/05 08:17:10;;;;;;;;;;;16.80;99.90;;;;;;5010637;28;19910;-71
2021/05/05 08:19:36;;;;;;;;;;;16.90;99.90;;;;;;5010256;28;19921;-69
2021/05/05 08:22:03;;;;;;;;;;;16.80;99.90;;;;;;5010838;28;20020;-70
2021/05/05 08:24:30;;;;;;;;;;;16.80;99.90;;;;;;5010537;28;20379;-69
2021/05/05 08:26:58;;;;;;;;;;;16.80;99.90;;;;;;5010542;28;19917;-70
2021/05/05 08:29:27;;;;;;;;;;;16.80;99.90;;;;;;5010847;28;19917;-70
2021/05/05 08:31:54;;;;;;;;;;;16.80;99.90;;;;;;5009788;28;19967;-70
2021/05/05 08:34:21;;;;;;;;;;;16.80;99.90;;;;;;5010324;28;20296;-69
2021/05/05 08:36:48;;;;;;;;;;;16.80;99.90;;;;;;5010350;28;19913;-69
2021/05/05 08:39:15;;;;;;;;;;;16.90;99.90;;;;;;5010659;28;19914;-69
2021/05/05 08:41:42;;;;;;;;;;;17.00;99.90;;;;;;5016754;28;19930;-69
2021/05/05 08:44:14;;;;;;;;;;;17.00;99.90;;;;;;5023085;28;19944;-69
2021/05/05 08:46:42;;;;;;;;;;;17.10;99.90;;;;;;5024481;28;19917;-70
2021/05/05 08:49:10;;;;;;;;;;;17.10;99.90;;;;;;5015236;28;20015;-70
2021/05/05 08:51:37;;;;;;;;;;;17.00;99.90;;;;;;5014338;28;20288;-70
2021/05/05 08:54:05;;;;;;;;;;;17.00;99.90;;;;;;5014086;28;19909;-72
2021/05/05 08:56:35;;;;;;;;;;;17.00;99.90;;;;;;5014168;28;20013;-69
2021/05/05 08:59:03;;;;;;;;;;;17.00;99.90;;;;;;5013494;28;19914;-70
2021/05/05 09:01:31;;;;;;;;;;;17.00;99.90;;;;;;5013475;28;19968;-71
2021/05/05 09:03:58;;;;;;;;;;;17.00;99.90;;;;;;5013885;28;19913;-71
2021/05/05 09:06:44;;;;;;;;;;;17.00;99.90;;;;;;5015460;28;20265;-69
2021/05/05 09:09:11;;;;;;;;;;;17.00;99.90;;;;;;5015898;28;20383;-70
2021/05/05 09:11:46;;;;;;;;;;;17.00;99.90;;;;;;5015853;28;20268;-71
2021/05/05 09:14:18;;;;;;;;;;;17.00;99.90;;;;;;5015560;28;19909;-71
2021/05/05 09:16:46;;;;;;;;;;;17.00;99.90;;;;;;5015684;28;19948;-70
2021/05/05 09:19:13;;;;;;;;;;;17.00;99.90;;;;;;5015596;28;19924;-71
2021/05/05 09:21:44;;;;;;;;;;;17.00;99.90;;;;;;5015813;28;20352;-71
2021/05/05 09:24:13;;;;;;;;;;;17.00;99.90;;;;;;5015455;28;19910;-71
2021/05/05 09:26:40;;;;;;;;;;;17.00;99.90;;;;;;5015809;28;19956;-68
2021/05/05 09:29:07;;;;;;;;;;;17.00;99.90;;;;;;5015455;28;20040;-69
2021/05/05 09:31:34;;;;;;;;;;;17.00;99.90;;;;;;5015359;28;19936;-72
2021/05/05 09:34:03;;;;;;;;;;;17.00;99.90;;;;;;5015537;28;19935;-72
2021/05/05 09:36:30;;;;;;;;;;;17.00;99.90;;;;;;5015401;28;19979;-71
2021/05/05 09:38:59;;;;;;;;;;;17.00;99.90;;;;;;5012209;28;19909;-69
2021/05/05 09:41:28;;;;;;;;;;;17.00;99.90;;;;;;5014446;28;20295;-71
2021/05/05 09:44:05;;;;;;;;;;;17.00;99.90;;;;;;5014937;28;19917;-70
2021/05/05 09:46:32;;;;;;;;;;;17.00;99.90;;;;;;4997426;28;20281;-69
2021/05/05 09:49:16;;;;;;;;;;;17.00;99.90;;;;;;5014387;28;19917;-71
2021/05/05 09:51:57;;;;;;;;;;;17.00;99.90;;;;;;5014717;28;19935;-71
2021/05/05 09:54:25;;;;;;;;;;;17.00;99.90;;;;;;5014938;28;19913;-70
2021/05/05 09:56:52;;;;;;;;;;;17.00;99.90;;;;;;5014183;28;19913;-68
2021/05/05 09:59:19;;;;;;;;;;;17.00;99.90;;;;;;5014690;28;19916;-69
2021/05/05 10:02:04;;;;;;;;;;;17.00;99.90;;;;;;5014545;28;20383;-70
2021/05/05 10:04:31;;;;;;;;;;;17.00;99.90;;;;;;5010584;28;20004;-69
2021/05/05 10:07:00;;;;;;;;;;;17.00;99.90;;;;;;5014484;28;19909;-68
2021/05/05 10:09:27;;;;;;;;;;;17.00;99.90;;;;;;5014754;28;19909;-69
2021/05/05 10:11:54;;;;;;;;;;;17.00;99.90;;;;;;5018063;28;19909;-67
2021/05/05 10:14:22;;;;;;;;;;;17.00;99.90;;;;;;5018346;28;19964;-69
2021/05/05 10:16:50;;;;;;;;;;;17.00;99.90;;;;;;5019788;28;19914;-69
2021/05/05 10:19:22;;;;;;;;;;;17.00;99.90;;;;;;5014501;28;19916;-69
2021/05/05 10:21:56;;;;;;;;;;;17.00;99.90;;;;;;5014618;28;19996;-70
2021/05/05 10:24:24;;;;;;;;;;;17.00;99.90;;;;;;5014441;28;19988;-70
2021/05/05 10:26:51;;;;;;;;;;;17.00;99.90;;;;;;5013964;28;19909;-69
2021/05/05 10:29:18;;;;;;;;;;;17.00;99.90;;;;;;5014233;28;19910;-71
2021/05/05 10:31:53;;;;;;;;;;;17.00;99.90;;;;;;5014169;28;20542;-70
2021/05/05 10:34:26;;;;;;;;;;;17.00;99.90;;;;;;5014117;28;20001;-69
2021/05/05 10:36:57;;;;;;;;;;;17.00;99.90;;;;;;5012802;28;20327;-69
2021/05/05 10:39:25;;;;;;;;;;;17.10;99.90;;;;;;5014049;28;19909;-68
2021/05/05 10:42:01;;;;;;;;;;;17.00;99.90;;;;;;5013952;28;19970;-71
2021/05/05 10:44:40;;;;;;;;;;;17.10;99.90;;;;;;5014268;28;19913;-72
2021/05/05 10:47:18;;;;;;;;;;;17.10;99.90;;;;;;5013943;28;19988;-69
2021/05/05 10:50:06;;;;;;;;;;;17.10;99.90;;;;;;4996096;28;19956;-69
2021/05/05 10:52:39;;;;;;;;;;;17.00;99.90;;;;;;5013928;28;19913;-70
2021/05/05 10:55:09;;;;;;;;;;;17.00;99.90;;;;;;5013452;28;20004;-71
2021/05/05 10:57:37;;;;;;;;;;;17.00;99.90;;;;;;5013115;28;19917;-69
2021/05/05 11:00:06;;;;;;;;;;;17.00;99.90;;;;;;5013428;28;19940;-69
2021/05/05 11:02:38;;;;;;;;;;;17.00;99.90;;;;;;5016600;28;19917;-69
2021/05/05 11:05:06;;;;;;;;;;;17.10;99.90;;;;;;4993786;28;19910;-72
2021/05/05 11:07:49;;;;;;;;;;;17.10;99.90;;;;;;4994512;28;19914;-69
2021/05/05 11:10:31;;;;;;;;;;;17.10;99.90;;;;;;4993989;28;19914;-69
2021/05/05 11:12:59;;;;;;;;;;;17.10;99.90;;;;;;5008204;28;20294;-71
2021/05/05 11:15:41;;;;;;;;;;;17.10;99.90;;;;;;5012346;28;19918;-69
2021/05/05 11:18:35;;;;;;;;;;;17.10;99.90;;;;;;5012845;28;19965;-69
2021/05/05 11:21:11;;;;;;;;;;;17.10;99.90;;;;;;5013171;28;20036;-69
2021/05/05 11:23:44;;;;;;;;;;;17.10;99.90;;;;;;5013432;28;20015;-70
2021/05/05 11:26:20;;;;;;;;;;;17.10;99.90;;;;;;5013390;28;19918;-71
2021/05/05 11:28:50;;;;;;;;;;;17.10;99.90;;;;;;5011153;28;19913;-69
2021/05/05 11:31:16;;;;;;;;;;;17.10;99.90;;;;;;5011153;28;20320;-70
2021/05/05 11:34:12;;;;;;;;;;;17.10;99.90;;;;;;5011222;28;19918;-69
2021/05/05 11:36:39;;;;;;;;;;;17.10;99.90;;;;;;4998355;28;19916;-68
2021/05/05 11:39:20;;;;;;;;;;;17.00;99.90;;;;;;4993632;28;19985;-68
2021/05/05 11:41:56;;;;;;;;;;;17.10;99.90;;;;;;5015098;28;19937;-68
2021/05/05 11:44:52;;;;;;;;;;;17.10;99.90;;;;;;5020400;28;19981;-68
2021/05/05 11:47:20;;;;;;;;;;;17.00;99.90;;;;;;5006753;28;20356;-73
2021/05/05 11:49:48;;;;;;;;;;;17.00;99.90;;;;;;5011030;28;19979;-73
2021/05/05 11:52:21;;;;;;;;;;;17.00;99.90;;;;;;5011193;28;19917;-74
2021/05/05 11:54:49;;;;;;;;;;;17.00;99.90;;;;;;5010738;28;19909;-72
2021/05/05 11:57:17;;;;;;;;;;;17.00;99.90;;;;;;5011042;28;19910;-72
2021/05/05 11:59:43;;;;;;;;;;;17.00;99.90;;;;;;5010203;28;19922;-71
2021/05/05 12:02:11;;;;;;;;;;;16.90;99.90;;;;;;4993294;28;19909;-71
2021/05/05 12:04:41;;;;;;;;;;;16.90;99.90;;;;;;5010786;28;19913;-73
2021/05/05 12:07:10;;;;;;;;;;;16.90;99.90;;;;;;5010982;28;20005;-70
2021/05/05 12:09:39;;;;;;;;;;;17.00;99.90;;;;;;5010528;28;19909;-73
2021/05/05 12:12:08;;;;;;;;;;;16.90;99.90;;;;;;5010915;28;19964;-71
2021/05/05 12:14:35;;;;;;;;;;;17.00;99.90;;;;;;5010336;28;19968;-71
2021/05/05 12:17:32;;;;;;;;;;;17.00;99.90;;;;;;5013544;28;20356;-73
2021/05/05 12:20:01;;;;;;;;;;;17.00;99.90;;;;;;5014694;28;19925;-72
2021/05/05 12:22:33;;;;;;;;;;;17.00;99.90;;;;;;5014381;28;19918;-73
2021/05/05 12:25:11;;;;;;;;;;;17.00;99.90;;;;;;4996764;28;19949;-70
2021/05/05 12:27:39;;;;;;;;;;;17.10;99.90;;;;;;5014694;28;20178;-70
2021/05/05 12:30:07;;;;;;;;;;;17.10;99.90;;;;;;5014554;28;20007;-69
2021/05/05 12:32:47;;;;;;;;;;;17.00;99.90;;;;;;5014378;28;20004;-71
2021/05/05 12:35:21;;;;;;;;;;;17.00;99.90;;;;;;5014083;28;19909;-69
2021/05/05 12:37:47;;;;;;;;;;;17.00;99.90;;;;;;5014511;28;20028;-68
2021/05/05 12:40:14;;;;;;;;;;;16.90;99.90;;;;;;5014202;28;19937;-69
2021/05/05 12:42:41;;;;;;;;;;;16.90;99.90;;;;;;5014119;28;20307;-71
2021/05/05 12:45:09;;;;;;;;;;;16.90;99.90;;;;;;5014017;28;20260;-69
2021/05/05 12:47:36;;;;;;;;;;;16.90;99.90;;;;;;5013546;28;19961;-69
2021/05/05 12:50:04;;;;;;;;;;;16.90;99.90;;;;;;5014205;28;19921;-68
2021/05/05 12:52:33;;;;;;;;;;;16.90;99.90;;;;;;4996399;28;19920;-70
2021/05/05 12:55:02;;;;;;;;;;;16.90;99.90;;;;;;5013817;28;19914;-69
2021/05/05 12:57:30;;;;;;;;;;;16.90;99.90;;;;;;5014027;28;19909;-70
2021/05/05 12:59:57;;;;;;;;;;;17.00;99.90;;;;;;5013182;28;20411;-70
2021/05/05 13:02:25;;;;;;;;;;;17.00;99.90;;;;;;5013959;28;19909;-68
2021/05/05 13:05:08;;;;;;;;;;;17.00;99.90;;;;;;5013621;28;19909;-70
2021/05/05 13:07:39;;;;;;;;;;;16.90;99.90;;;;;;5014222;28;19910;-71
2021/05/05 13:10:15;;;;;;;;;;;16.90;99.90;;;;;;5016266;28;19914;-69
2021/05/05 13:12:46;;;;;;;;;;;17.00;99.90;;;;;;5016820;28;19952;-70
2021/05/05 13:32:36;;;;;;;;;;;16.90;99.90;;;;;;5013329;28;19910;-69
2021/05/05 13:35:21;;;;;;;;;;;17.00;99.90;;;;;;5013066;28;19937;-68
2021/05/05 13:38:23;;;;;;;;;;;16.90;99.90;;;;;;5013179;28;19993;-69
2021/05/05 13:40:52;;;;;;;;;;;16.90;99.90;;;;;;4951580;29;19918;-68
2021/05/05 13:43:31;;;;;;;;;;;16.90;99.90;;;;;;4970152;28;19953;-69
2021/05/05 13:46:05;;;;;;;;;;;16.90;99.90;;;;;;4974142;28;19921;-69
2021/05/05 13:48:41;;;;;;;;;;;16.90;99.90;;;;;;4974010;28;20558;-70
2021/05/05 13:51:09;;;;;;;;;;;17.00;99.90;;;;;;4973966;28;20415;-71
2021/05/05 13:53:36;;;;;;;;;;;16.90;99.90;;;;;;4973474;28;19917;-69
2021/05/05 13:56:04;;;;;;;;;;;17.00;99.90;;;;;;4974031;28;20464;-70
2021/05/05 13:58:31;;;;;;;;;;;17.00;99.90;;;;;;4973538;28;20000;-69
2021/05/05 14:00:58;;;;;;;;;;;17.00;99.90;;;;;;4973521;28;19926;-68
2021/05/05 14:03:24;;;;;;;;;;;17.00;99.90;;;;;;4973511;28;20370;-68
2021/05/05 14:05:55;;;;;;;;;;;17.00;99.90;;;;;;4973347;28;20444;-69
2021/05/05 14:08:23;;;;;;;;;;;16.90;99.90;;;;;;4973709;28;20024;-70
2021/05/05 14:10:51;;;;;;;;;;;16.90;99.90;;;;;;4973334;28;19910;-70
2021/05/05 14:13:18;;;;;;;;;;;16.80;99.90;;;;;;4973544;28;19965;-70
2021/05/05 14:15:46;;;;;;;;;;;16.80;99.90;;;;;;4973472;28;20314;-70
2021/05/05 14:18:12;;;;;;;;;;;16.70;99.90;;;;;;4973361;28;19918;-70
2021/05/05 14:20:39;;;;;;;;;;;16.70;99.90;;;;;;4973362;28;19961;-69
2021/05/05 14:23:06;;;;;;;;;;;16.70;99.90;;;;;;4973764;28;20297;-72
2021/05/05 14:25:37;;;;;;;;;;;16.70;99.90;;;;;;4974024;28;20318;-70
2021/05/05 14:28:04;;;;;;;;;;;16.70;99.90;;;;;;4973543;28;19914;-68
2021/05/05 14:30:31;;;;;;;;;;;16.60;99.90;;;;;;4973083;28;20377;-69
2021/05/05 14:32:59;;;;;;;;;;;16.70;99.90;;;;;;4972473;28;19914;-68
2021/05/05 14:35:28;;;;;;;;;;;16.70;99.90;;;;;;4973437;28;19941;-69
2021/05/05 14:38:11;;;;;;;;;;;16.70;99.90;;;;;;4971682;28;20436;-69
2021/05/05 14:40:40;;;;;;;;;;;16.70;99.90;;;;;;4973411;28;19956;-68
2021/05/05 14:43:33;;;;;;;;;;;16.70;99.90;;;;;;5010381;28;20028;-69
2021/05/05 14:48:44;;;;;;;;;;;16.60;99.90;;;;;;5012015;28;19916;-70
2021/05/05 14:51:11;;;;;;;;;;;16.60;99.90;;;;;;5012175;28;19947;-70
2021/05/05 14:53:38;;;;;;;;;;;16.60;99.90;;;;;;5012589;28;19913;-70